sensor_id;sensor_type;location;lat;lon;timestamp;P1;durP1;ratioP1;P2;durP2;ratioP2
15159;SDS011;7680;48.800;9.680;2023-03-23T00:01:06;4.20;;;3.90;;
15159;SDS011;7680;48.800;9.680;2023-03-23T00:03:41;3.53;;;3.22;;
15159;SDS011;7680;48.800;9.680;2023-03-23T00:06:13;3.90;;;3.45;;
15159;SDS011;7680;48.800;9.680;2023-03-23T00:08:49;3.80;;;3.43;;
15159;SDS011;7680;48.800;9.680;2023-03-23T00:11:27;3.20;;;2.95;;
15159;SDS011;7680;48.800;9.680;2023-03-23T00:14:00;2.67;;;2.47;;
15159;SDS011;7680;48.800;9.680;2023-03-23T00:16:32;3.30;;;2.75;;
15159;SDS011;7680;48.800;9.680;2023-03-23T00:19:09;4.07;;;3.00;;
15159;SDS011;7680;48.800;9.680;2023-03-23T00:21:43;3.17;;;2.97;;
15159;SDS011;7680;48.800;9.680;2023-03-23T00:24:17;3.30;;;3.10;;
15159;SDS011;7680;48.800;9.680;2023-03-23T00:26:50;3.38;;;3.00;;
15159;SDS011;7680;48.800;9.680;2023-03-23T00:29:23;3.42;;;2.70;;
15159;SDS011;7680;48.800;9.680;2023-03-23T00:31:56;2.97;;;2.78;;
15159;SDS011;7680;48.800;9.680;2023-03-23T00:34:28;3.08;;;2.88;;
15159;SDS011;7680;48.800;9.680;2023-03-23T00:37:02;3.35;;;3.10;;
15159;SDS011;7680;48.800;9.680;2023-03-23T00:39:35;2.95;;;2.70;;
15159;SDS011;7680;48.800;9.680;2023-03-23T00:42:16;3.50;;;3.20;;
15159;SDS011;7680;48.800;9.680;2023-03-23T00:44:48;3.07;;;2.87;;
15159;SDS011;7680;48.800;9.680;2023-03-23T00:47:20;4.67;;;3.50;;
15159;SDS011;7680;48.800;9.680;2023-03-23T00:49:52;3.78;;;2.97;;
15159;SDS011;7680;48.800;9.680;2023-03-23T00:52:26;2.83;;;2.65;;
15159;SDS011;7680;48.800;9.680;2023-03-23T00:54:59;3.10;;;2.83;;
15159;SDS011;7680;48.800;9.680;2023-03-23T00:57:31;3.35;;;3.08;;
15159;SDS011;7680;48.800;9.680;2023-03-23T01:00:04;3.53;;;3.22;;
15159;SDS011;7680;48.800;9.680;2023-03-23T01:02:40;3.20;;;2.77;;
15159;SDS011;7680;48.800;9.680;2023-03-23T01:05:14;3.33;;;3.13;;
15159;SDS011;7680;48.800;9.680;2023-03-23T01:07:46;2.88;;;2.67;;
15159;SDS011;7680;48.800;9.680;2023-03-23T01:10:20;2.30;;;2.20;;
15159;SDS011;7680;48.800;9.680;2023-03-23T01:12:52;2.80;;;2.70;;
15159;SDS011;7680;48.800;9.680;2023-03-23T01:15:25;2.92;;;2.72;;
15159;SDS011;7680;48.800;9.680;2023-03-23T01:17:57;3.40;;;3.10;;
15159;SDS011;7680;48.800;9.680;2023-03-23T01:20:30;3.17;;;2.88;;
15159;SDS011;7680;48.800;9.680;2023-03-23T01:23:02;3.27;;;3.00;;
15159;SDS011;7680;48.800;9.680;2023-03-23T01:25:36;3.40;;;3.10;;
15159;SDS011;7680;48.800;9.680;2023-03-23T01:28:08;3.33;;;3.07;;
15159;SDS011;7680;48.800;9.680;2023-03-23T01:30:41;4.33;;;3.40;;
15159;SDS011;7680;48.800;9.680;2023-03-23T01:33:13;3.53;;;3.30;;
15159;SDS011;7680;48.800;9.680;2023-03-23T01:35:45;3.43;;;3.13;;
15159;SDS011;7680;48.800;9.680;2023-03-23T01:38:17;3.07;;;2.87;;
15159;SDS011;7680;48.800;9.680;2023-03-23T01:40:51;3.27;;;3.00;;
15159;SDS011;7680;48.800;9.680;2023-03-23T01:43:23;3.80;;;3.30;;
15159;SDS011;7680;48.800;9.680;2023-03-23T01:45:55;3.65;;;2.75;;
15159;SDS011;7680;48.800;9.680;2023-03-23T01:48:28;3.50;;;3.03;;
15159;SDS011;7680;48.800;9.680;2023-03-23T01:51:04;3.13;;;2.83;;
15159;SDS011;7680;48.800;9.680;2023-03-23T01:53:42;2.90;;;2.70;;
15159;SDS011;7680;48.800;9.680;2023-03-23T01:56:20;3.75;;;3.35;;
15159;SDS011;7680;48.800;9.680;2023-03-23T01:58:56;3.15;;;2.95;;
15159;SDS011;7680;48.800;9.680;2023-03-23T02:01:28;3.35;;;3.00;;
15159;SDS011;7680;48.800;9.680;2023-03-23T02:04:00;3.20;;;2.97;;
15159;SDS011;7680;48.800;9.680;2023-03-23T02:06:32;3.42;;;3.05;;
15159;SDS011;7680;48.800;9.680;2023-03-23T02:09:04;3.45;;;3.15;;
15159;SDS011;7680;48.800;9.680;2023-03-23T02:11:38;2.63;;;2.33;;
15159;SDS011;7680;48.800;9.680;2023-03-23T02:14:11;3.25;;;2.95;;
15159;SDS011;7680;48.800;9.680;2023-03-23T02:16:44;3.60;;;3.00;;
15159;SDS011;7680;48.800;9.680;2023-03-23T02:19:33;2.50;;;2.40;;
15159;SDS011;7680;48.800;9.680;2023-03-23T02:22:35;3.33;;;3.03;;
15159;SDS011;7680;48.800;9.680;2023-03-23T02:25:31;4.03;;;2.80;;
15159;SDS011;7680;48.800;9.680;2023-03-23T02:28:36;2.75;;;2.58;;
15159;SDS011;7680;48.800;9.680;2023-03-23T02:31:42;2.67;;;2.47;;
15159;SDS011;7680;48.800;9.680;2023-03-23T02:34:28;3.28;;;3.05;;
15159;SDS011;7680;48.800;9.680;2023-03-23T02:37:03;3.38;;;3.17;;
15159;SDS011;7680;48.800;9.680;2023-03-23T02:39:42;3.67;;;3.38;;
15159;SDS011;7680;48.800;9.680;2023-03-23T02:42:20;3.70;;;3.10;;
15159;SDS011;7680;48.800;9.680;2023-03-23T02:44:57;3.10;;;2.90;;
15159;SDS011;7680;48.800;9.680;2023-03-23T02:47:34;4.10;;;3.80;;
15159;SDS011;7680;48.800;9.680;2023-03-23T02:50:10;3.22;;;2.92;;
15159;SDS011;7680;48.800;9.680;2023-03-23T02:52:45;3.15;;;2.90;;
15159;SDS011;7680;48.800;9.680;2023-03-23T02:55:21;3.22;;;3.00;;
15159;SDS011;7680;48.800;9.680;2023-03-23T02:57:54;2.92;;;2.70;;
15159;SDS011;7680;48.800;9.680;2023-03-23T03:00:27;4.03;;;3.30;;
15159;SDS011;7680;48.800;9.680;2023-03-23T03:02:59;3.03;;;2.67;;
15159;SDS011;7680;48.800;9.680;2023-03-23T03:05:36;3.20;;;3.00;;
15159;SDS011;7680;48.800;9.680;2023-03-23T03:08:18;2.80;;;2.60;;
15159;SDS011;7680;48.800;9.680;2023-03-23T03:10:58;4.68;;;2.90;;
15159;SDS011;7680;48.800;9.680;2023-03-23T03:13:37;3.42;;;3.13;;
15159;SDS011;7680;48.800;9.680;2023-03-23T03:16:20;3.50;;;3.20;;
15159;SDS011;7680;48.800;9.680;2023-03-23T03:18:59;4.70;;;3.25;;
15159;SDS011;7680;48.800;9.680;2023-03-23T03:21:39;3.42;;;3.10;;
15159;SDS011;7680;48.800;9.680;2023-03-23T03:24:16;3.40;;;3.20;;
15159;SDS011;7680;48.800;9.680;2023-03-23T03:26:51;3.55;;;3.30;;
15159;SDS011;7680;48.800;9.680;2023-03-23T03:29:28;4.63;;;3.20;;
15159;SDS011;7680;48.800;9.680;2023-03-23T03:32:05;3.78;;;3.50;;
15159;SDS011;7680;48.800;9.680;2023-03-23T03:34:40;2.95;;;2.53;;
15159;SDS011;7680;48.800;9.680;2023-03-23T03:37:14;3.50;;;3.30;;
15159;SDS011;7680;48.800;9.680;2023-03-23T03:39:46;2.95;;;2.70;;
15159;SDS011;7680;48.800;9.680;2023-03-23T03:42:18;2.85;;;2.65;;
15159;SDS011;7680;48.800;9.680;2023-03-23T03:44:50;2.97;;;2.80;;
15159;SDS011;7680;48.800;9.680;2023-03-23T03:47:22;4.00;;;2.83;;
15159;SDS011;7680;48.800;9.680;2023-03-23T03:49:54;3.42;;;2.95;;
15159;SDS011;7680;48.800;9.680;2023-03-23T03:52:28;3.50;;;3.20;;
15159;SDS011;7680;48.800;9.680;2023-03-23T03:55:00;3.20;;;2.97;;
15159;SDS011;7680;48.800;9.680;2023-03-23T03:57:32;3.22;;;2.85;;
15159;SDS011;7680;48.800;9.680;2023-03-23T04:00:05;3.53;;;3.17;;
15159;SDS011;7680;48.800;9.680;2023-03-23T04:02:44;3.40;;;3.10;;
15159;SDS011;7680;48.800;9.680;2023-03-23T04:05:20;3.15;;;2.90;;
15159;SDS011;7680;48.800;9.680;2023-03-23T04:07:55;4.20;;;3.42;;
15159;SDS011;7680;48.800;9.680;2023-03-23T04:10:31;3.63;;;3.33;;
15159;SDS011;7680;48.800;9.680;2023-03-23T04:13:04;3.55;;;3.22;;
15159;SDS011;7680;48.800;9.680;2023-03-23T04:15:36;3.08;;;2.78;;
15159;SDS011;7680;48.800;9.680;2023-03-23T04:18:09;3.38;;;3.08;;
15159;SDS011;7680;48.800;9.680;2023-03-23T04:20:41;2.95;;;2.65;;
15159;SDS011;7680;48.800;9.680;2023-03-23T04:23:16;2.63;;;2.42;;
15159;SDS011;7680;48.800;9.680;2023-03-23T04:25:50;4.05;;;3.17;;
15159;SDS011;7680;48.800;9.680;2023-03-23T04:28:23;2.97;;;2.78;;
15159;SDS011;7680;48.800;9.680;2023-03-23T04:30:56;3.10;;;2.85;;
15159;SDS011;7680;48.800;9.680;2023-03-23T04:33:30;5.00;;;3.20;;
15159;SDS011;7680;48.800;9.680;2023-03-23T04:36:02;3.35;;;3.05;;
15159;SDS011;7680;48.800;9.680;2023-03-23T04:38:38;3.60;;;3.40;;
15159;SDS011;7680;48.800;9.680;2023-03-23T04:41:11;3.38;;;3.08;;
15159;SDS011;7680;48.800;9.680;2023-03-23T04:43:43;3.05;;;2.85;;
15159;SDS011;7680;48.800;9.680;2023-03-23T04:46:15;2.88;;;2.67;;
15159;SDS011;7680;48.800;9.680;2023-03-23T04:48:48;3.20;;;3.00;;
15159;SDS011;7680;48.800;9.680;2023-03-23T04:51:20;3.30;;;3.10;;
15159;SDS011;7680;48.800;9.680;2023-03-23T04:53:53;3.50;;;3.22;;
15159;SDS011;7680;48.800;9.680;2023-03-23T04:56:26;3.40;;;3.10;;
15159;SDS011;7680;48.800;9.680;2023-03-23T04:58:58;3.08;;;2.88;;
15159;SDS011;7680;48.800;9.680;2023-03-23T05:01:31;3.33;;;3.08;;
15159;SDS011;7680;48.800;9.680;2023-03-23T05:04:04;3.42;;;3.13;;
15159;SDS011;7680;48.800;9.680;2023-03-23T05:06:36;3.50;;;2.78;;
15159;SDS011;7680;48.800;9.680;2023-03-23T05:09:09;3.17;;;2.92;;
15159;SDS011;7680;48.800;9.680;2023-03-23T05:11:42;3.35;;;3.15;;
15159;SDS011;7680;48.800;9.680;2023-03-23T05:14:14;3.60;;;3.30;;
15159;SDS011;7680;48.800;9.680;2023-03-23T05:16:46;3.13;;;2.83;;
15159;SDS011;7680;48.800;9.680;2023-03-23T05:19:18;3.60;;;3.28;;
15159;SDS011;7680;48.800;9.680;2023-03-23T05:21:51;3.63;;;3.33;;
15159;SDS011;7680;48.800;9.680;2023-03-23T05:24:25;3.05;;;2.85;;
15159;SDS011;7680;48.800;9.680;2023-03-23T05:27:01;3.20;;;3.00;;
15159;SDS011;7680;48.800;9.680;2023-03-23T05:29:33;3.20;;;3.00;;
15159;SDS011;7680;48.800;9.680;2023-03-23T05:32:07;4.13;;;3.40;;
15159;SDS011;7680;48.800;9.680;2023-03-23T05:34:39;3.38;;;3.17;;
15159;SDS011;7680;48.800;9.680;2023-03-23T05:37:12;3.30;;;3.00;;
15159;SDS011;7680;48.800;9.680;2023-03-23T05:39:46;3.05;;;2.85;;
15159;SDS011;7680;48.800;9.680;2023-03-23T05:42:18;3.33;;;3.03;;
15159;SDS011;7680;48.800;9.680;2023-03-23T05:44:50;3.33;;;3.13;;
15159;SDS011;7680;48.800;9.680;2023-03-23T05:47:23;3.72;;;3.25;;
15159;SDS011;7680;48.800;9.680;2023-03-23T05:49:55;3.33;;;2.97;;
15159;SDS011;7680;48.800;9.680;2023-03-23T05:52:27;3.20;;;3.00;;
15159;SDS011;7680;48.800;9.680;2023-03-23T05:55:04;3.30;;;3.00;;
15159;SDS011;7680;48.800;9.680;2023-03-23T05:57:38;2.97;;;2.78;;
15159;SDS011;7680;48.800;9.680;2023-03-23T06:00:11;3.50;;;3.20;;
15159;SDS011;7680;48.800;9.680;2023-03-23T06:02:49;3.60;;;3.33;;
15159;SDS011;7680;48.800;9.680;2023-03-23T06:05:26;3.30;;;2.90;;
15159;SDS011;7680;48.800;9.680;2023-03-23T06:07:59;4.60;;;4.20;;
15159;SDS011;7680;48.800;9.680;2023-03-23T06:10:32;3.70;;;3.40;;
15159;SDS011;7680;48.800;9.680;2023-03-23T06:13:06;4.35;;;3.78;;
15159;SDS011;7680;48.800;9.680;2023-03-23T06:15:38;4.30;;;3.90;;
15159;SDS011;7680;48.800;9.680;2023-03-23T06:18:10;5.10;;;3.72;;
15159;SDS011;7680;48.800;9.680;2023-03-23T06:20:43;3.90;;;3.60;;
15159;SDS011;7680;48.800;9.680;2023-03-23T06:23:15;5.55;;;3.95;;
15159;SDS011;7680;48.800;9.680;2023-03-23T06:25:49;5.10;;;3.95;;
15159;SDS011;7680;48.800;9.680;2023-03-23T06:28:24;4.57;;;4.13;;
15159;SDS011;7680;48.800;9.680;2023-03-23T06:30:58;3.63;;;3.20;;
15159;SDS011;7680;48.800;9.680;2023-03-23T06:33:30;4.43;;;3.92;;
15159;SDS011;7680;48.800;9.680;2023-03-23T06:36:04;3.85;;;3.55;;
15159;SDS011;7680;48.800;9.680;2023-03-23T06:38:36;4.88;;;3.92;;
15159;SDS011;7680;48.800;9.680;2023-03-23T06:41:10;4.07;;;3.75;;
15159;SDS011;7680;48.800;9.680;2023-03-23T06:43:42;3.83;;;3.40;;
15159;SDS011;7680;48.800;9.680;2023-03-23T06:46:16;4.30;;;3.90;;
15159;SDS011;7680;48.800;9.680;2023-03-23T06:48:48;4.70;;;4.25;;
15159;SDS011;7680;48.800;9.680;2023-03-23T06:51:21;4.18;;;3.75;;
15159;SDS011;7680;48.800;9.680;2023-03-23T06:53:53;4.45;;;3.65;;
15159;SDS011;7680;48.800;9.680;2023-03-23T06:56:26;3.67;;;3.38;;
15159;SDS011;7680;48.800;9.680;2023-03-23T06:59:00;4.05;;;3.65;;
15159;SDS011;7680;48.800;9.680;2023-03-23T07:01:32;4.80;;;3.70;;
15159;SDS011;7680;48.800;9.680;2023-03-23T07:04:04;4.30;;;3.90;;
15159;SDS011;7680;48.800;9.680;2023-03-23T07:06:36;4.05;;;3.75;;
15159;SDS011;7680;48.800;9.680;2023-03-23T07:09:08;3.83;;;3.50;;
15159;SDS011;7680;48.800;9.680;2023-03-23T07:11:41;4.30;;;4.00;;
15159;SDS011;7680;48.800;9.680;2023-03-23T07:14:14;4.25;;;3.92;;
15159;SDS011;7680;48.800;9.680;2023-03-23T07:16:46;4.10;;;3.75;;
15159;SDS011;7680;48.800;9.680;2023-03-23T07:19:18;4.95;;;4.45;;
15159;SDS011;7680;48.800;9.680;2023-03-23T07:21:50;5.22;;;4.57;;
15159;SDS011;7680;48.800;9.680;2023-03-23T07:24:22;4.28;;;3.88;;
15159;SDS011;7680;48.800;9.680;2023-03-23T07:26:55;4.10;;;3.70;;
15159;SDS011;7680;48.800;9.680;2023-03-23T07:29:27;4.63;;;4.00;;
15159;SDS011;7680;48.800;9.680;2023-03-23T07:31:59;3.95;;;3.55;;
15159;SDS011;7680;48.800;9.680;2023-03-23T07:34:32;3.63;;;3.33;;
15159;SDS011;7680;48.800;9.680;2023-03-23T07:37:04;4.70;;;3.72;;
15159;SDS011;7680;48.800;9.680;2023-03-23T07:39:37;3.97;;;3.60;;
15159;SDS011;7680;48.800;9.680;2023-03-23T07:42:11;4.13;;;3.83;;
15159;SDS011;7680;48.800;9.680;2023-03-23T07:44:43;3.92;;;3.60;;
15159;SDS011;7680;48.800;9.680;2023-03-23T07:47:15;4.00;;;3.70;;
15159;SDS011;7680;48.800;9.680;2023-03-23T07:49:48;4.85;;;4.20;;
15159;SDS011;7680;48.800;9.680;2023-03-23T07:52:20;5.03;;;4.03;;
15159;SDS011;7680;48.800;9.680;2023-03-23T07:54:53;5.15;;;4.28;;
15159;SDS011;7680;48.800;9.680;2023-03-23T07:57:27;5.38;;;3.97;;
15159;SDS011;7680;48.800;9.680;2023-03-23T07:59:59;3.88;;;3.58;;
15159;SDS011;7680;48.800;9.680;2023-03-23T08:02:45;4.15;;;3.75;;
15159;SDS011;7680;48.800;9.680;2023-03-23T08:05:18;4.18;;;3.72;;
15159;SDS011;7680;48.800;9.680;2023-03-23T08:07:52;4.10;;;3.70;;
15159;SDS011;7680;48.800;9.680;2023-03-23T08:10:25;4.38;;;4.00;;
15159;SDS011;7680;48.800;9.680;2023-03-23T08:12:58;6.47;;;4.03;;
15159;SDS011;7680;48.800;9.680;2023-03-23T08:15:30;4.28;;;3.97;;
15159;SDS011;7680;48.800;9.680;2023-03-23T08:18:04;4.80;;;4.40;;
15159;SDS011;7680;48.800;9.680;2023-03-23T08:20:36;5.00;;;4.35;;
15159;SDS011;7680;48.800;9.680;2023-03-23T08:23:08;3.42;;;3.20;;
15159;SDS011;7680;48.800;9.680;2023-03-23T08:25:40;5.25;;;3.72;;
15159;SDS011;7680;48.800;9.680;2023-03-23T08:28:15;3.88;;;3.58;;
15159;SDS011;7680;48.800;9.680;2023-03-23T08:30:47;4.18;;;3.70;;
15159;SDS011;7680;48.800;9.680;2023-03-23T08:33:19;3.97;;;3.50;;
15159;SDS011;7680;48.800;9.680;2023-03-23T08:35:55;4.13;;;3.80;;
15159;SDS011;7680;48.800;9.680;2023-03-23T08:38:28;4.38;;;3.95;;
15159;SDS011;7680;48.800;9.680;2023-03-23T08:41:02;4.35;;;4.05;;
15159;SDS011;7680;48.800;9.680;2023-03-23T08:43:38;5.28;;;4.35;;
15159;SDS011;7680;48.800;9.680;2023-03-23T08:46:10;5.47;;;3.70;;
15159;SDS011;7680;48.800;9.680;2023-03-23T08:48:43;3.67;;;3.45;;
15159;SDS011;7680;48.800;9.680;2023-03-23T08:51:15;3.55;;;3.10;;
15159;SDS011;7680;48.800;9.680;2023-03-23T08:53:48;3.40;;;3.10;;
15159;SDS011;7680;48.800;9.680;2023-03-23T08:56:20;3.85;;;3.17;;
15159;SDS011;7680;48.800;9.680;2023-03-23T08:58:54;3.47;;;3.10;;
15159;SDS011;7680;48.800;9.680;2023-03-23T09:01:26;4.18;;;3.15;;
15159;SDS011;7680;48.800;9.680;2023-03-23T09:03:58;4.22;;;3.38;;
15159;SDS011;7680;48.800;9.680;2023-03-23T09:06:30;3.53;;;3.10;;
15159;SDS011;7680;48.800;9.680;2023-03-23T09:09:03;3.67;;;2.90;;
15159;SDS011;7680;48.800;9.680;2023-03-23T09:11:36;3.35;;;3.03;;
15159;SDS011;7680;48.800;9.680;2023-03-23T09:14:11;4.10;;;2.80;;
15159;SDS011;7680;48.800;9.680;2023-03-23T09:16:43;3.25;;;2.95;;
15159;SDS011;7680;48.800;9.680;2023-03-23T09:19:15;2.60;;;2.40;;
15159;SDS011;7680;48.800;9.680;2023-03-23T09:21:47;3.17;;;2.88;;
15159;SDS011;7680;48.800;9.680;2023-03-23T09:24:20;2.47;;;2.38;;
15159;SDS011;7680;48.800;9.680;2023-03-23T09:26:52;4.07;;;2.63;;
15159;SDS011;7680;48.800;9.680;2023-03-23T09:29:26;2.35;;;2.15;;
15159;SDS011;7680;48.800;9.680;2023-03-23T09:31:58;2.80;;;2.60;;
15159;SDS011;7680;48.800;9.680;2023-03-23T09:34:30;2.83;;;2.60;;
15159;SDS011;7680;48.800;9.680;2023-03-23T09:37:05;2.70;;;2.50;;
15159;SDS011;7680;48.800;9.680;2023-03-23T09:39:38;3.15;;;2.85;;
15159;SDS011;7680;48.800;9.680;2023-03-23T09:42:13;2.55;;;2.35;;
15159;SDS011;7680;48.800;9.680;2023-03-23T09:45:05;2.80;;;2.60;;
15159;SDS011;7680;48.800;9.680;2023-03-23T09:47:55;2.63;;;2.35;;
15159;SDS011;7680;48.800;9.680;2023-03-23T09:50:46;2.70;;;2.50;;
15159;SDS011;7680;48.800;9.680;2023-03-23T09:53:24;2.40;;;2.20;;
15159;SDS011;7680;48.800;9.680;2023-03-23T09:56:08;2.80;;;2.60;;
15159;SDS011;7680;48.800;9.680;2023-03-23T09:58:45;2.40;;;2.20;;
15159;SDS011;7680;48.800;9.680;2023-03-23T10:01:23;2.50;;;2.30;;
15159;SDS011;7680;48.800;9.680;2023-03-23T10:04:00;2.45;;;2.30;;
15159;SDS011;7680;48.800;9.680;2023-03-23T10:06:36;2.63;;;2.42;;
15159;SDS011;7680;48.800;9.680;2023-03-23T10:09:10;2.72;;;2.50;;
15159;SDS011;7680;48.800;9.680;2023-03-23T10:11:50;2.45;;;2.28;;
15159;SDS011;7680;48.800;9.680;2023-03-23T10:17:48;2.22;;;2.08;;
15159;SDS011;7680;48.800;9.680;2023-03-23T10:20:32;2.60;;;2.40;;
15159;SDS011;7680;48.800;9.680;2023-03-23T10:23:23;2.55;;;2.35;;
15159;SDS011;7680;48.800;9.680;2023-03-23T10:26:16;2.80;;;2.60;;
15159;SDS011;7680;48.800;9.680;2023-03-23T10:28:59;2.78;;;2.58;;
15159;SDS011;7680;48.800;9.680;2023-03-23T10:31:43;3.10;;;2.50;;
15159;SDS011;7680;48.800;9.680;2023-03-23T10:34:24;2.90;;;2.17;;
15159;SDS011;7680;48.800;9.680;2023-03-23T10:37:03;2.63;;;2.42;;
15159;SDS011;7680;48.800;9.680;2023-03-23T10:39:45;2.35;;;2.15;;
15159;SDS011;7680;48.800;9.680;2023-03-23T10:42:22;2.42;;;2.05;;
15159;SDS011;7680;48.800;9.680;2023-03-23T10:44:59;2.80;;;2.30;;
15159;SDS011;7680;48.800;9.680;2023-03-23T10:47:46;2.40;;;2.20;;
15159;SDS011;7680;48.800;9.680;2023-03-23T10:50:23;2.70;;;2.50;;
15159;SDS011;7680;48.800;9.680;2023-03-23T10:53:01;2.28;;;2.03;;
15159;SDS011;7680;48.800;9.680;2023-03-23T10:55:45;2.42;;;2.22;;
15159;SDS011;7680;48.800;9.680;2023-03-23T10:58:22;2.40;;;2.20;;
15159;SDS011;7680;48.800;9.680;2023-03-23T11:00:59;2.47;;;2.28;;
15159;SDS011;7680;48.800;9.680;2023-03-23T11:03:35;2.40;;;2.20;;
15159;SDS011;7680;48.800;9.680;2023-03-23T11:06:22;2.70;;;2.30;;
15159;SDS011;7680;48.800;9.680;2023-03-23T11:08:58;2.67;;;2.47;;
15159;SDS011;7680;48.800;9.680;2023-03-23T11:11:36;2.70;;;2.50;;
15159;SDS011;7680;48.800;9.680;2023-03-23T11:14:15;3.80;;;2.78;;
15159;SDS011;7680;48.800;9.680;2023-03-23T11:16:50;2.58;;;2.00;;
15159;SDS011;7680;48.800;9.680;2023-03-23T11:19:25;3.25;;;2.45;;
15159;SDS011;7680;48.800;9.680;2023-03-23T11:22:05;3.00;;;2.20;;
15159;SDS011;7680;48.800;9.680;2023-03-23T11:24:40;2.47;;;2.30;;
15159;SDS011;7680;48.800;9.680;2023-03-23T11:27:15;2.30;;;2.10;;
15159;SDS011;7680;48.800;9.680;2023-03-23T11:29:48;2.30;;;2.10;;
15159;SDS011;7680;48.800;9.680;2023-03-23T11:32:24;2.40;;;2.20;;
15159;SDS011;7680;48.800;9.680;2023-03-23T11:34:59;2.30;;;2.10;;
15159;SDS011;7680;48.800;9.680;2023-03-23T11:37:40;3.45;;;2.72;;
15159;SDS011;7680;48.800;9.680;2023-03-23T11:40:15;2.97;;;2.00;;
15159;SDS011;7680;48.800;9.680;2023-03-23T11:42:50;2.70;;;2.50;;
15159;SDS011;7680;48.800;9.680;2023-03-23T11:45:32;2.30;;;2.10;;
15159;SDS011;7680;48.800;9.680;2023-03-23T11:48:13;2.63;;;2.42;;
15159;SDS011;7680;48.800;9.680;2023-03-23T11:50:54;2.88;;;2.33;;
15159;SDS011;7680;48.800;9.680;2023-03-23T11:53:33;3.70;;;2.10;;
15159;SDS011;7680;48.800;9.680;2023-03-23T11:56:19;2.63;;;2.20;;
15159;SDS011;7680;48.800;9.680;2023-03-23T11:58:57;2.47;;;2.28;;
15159;SDS011;7680;48.800;9.680;2023-03-23T12:01:37;2.67;;;2.15;;
15159;SDS011;7680;48.800;9.680;2023-03-23T12:04:29;2.80;;;2.35;;
15159;SDS011;7680;48.800;9.680;2023-03-23T12:07:14;3.15;;;2.45;;
15159;SDS011;7680;48.800;9.680;2023-03-23T12:10:16;2.60;;;2.45;;
15159;SDS011;7680;48.800;9.680;2023-03-23T12:13:01;2.70;;;2.50;;
15159;SDS011;7680;48.800;9.680;2023-03-23T12:15:47;3.25;;;2.80;;
15159;SDS011;7680;48.800;9.680;2023-03-23T12:18:37;2.60;;;2.40;;
15159;SDS011;7680;48.800;9.680;2023-03-23T12:21:19;2.75;;;2.42;;
15159;SDS011;7680;48.800;9.680;2023-03-23T12:24:11;2.60;;;2.42;;
15159;SDS011;7680;48.800;9.680;2023-03-23T12:26:58;2.88;;;2.67;;
15159;SDS011;7680;48.800;9.680;2023-03-23T12:29:40;2.60;;;2.40;;
15159;SDS011;7680;48.800;9.680;2023-03-23T12:32:38;2.88;;;2.30;;
15159;SDS011;7680;48.800;9.680;2023-03-23T12:35:34;2.55;;;2.35;;
15159;SDS011;7680;48.800;9.680;2023-03-23T12:38:26;2.47;;;2.28;;
15159;SDS011;7680;48.800;9.680;2023-03-23T12:41:26;2.88;;;2.58;;
15159;SDS011;7680;48.800;9.680;2023-03-23T12:44:05;2.90;;;2.50;;
15159;SDS011;7680;48.800;9.680;2023-03-23T12:47:01;2.45;;;2.25;;
15159;SDS011;7680;48.800;9.680;2023-03-23T12:49:52;2.97;;;2.67;;
15159;SDS011;7680;48.800;9.680;2023-03-23T12:52:28;2.67;;;2.45;;
15159;SDS011;7680;48.800;9.680;2023-03-23T12:55:12;3.10;;;2.90;;
15159;SDS011;7680;48.800;9.680;2023-03-23T12:57:53;2.75;;;2.55;;
15159;SDS011;7680;48.800;9.680;2023-03-23T13:00:33;3.22;;;2.50;;
15159;SDS011;7680;48.800;9.680;2023-03-23T13:03:23;3.00;;;2.40;;
15159;SDS011;7680;48.800;9.680;2023-03-23T13:06:02;2.60;;;2.40;;
15159;SDS011;7680;48.800;9.680;2023-03-23T13:08:40;2.60;;;2.40;;
15159;SDS011;7680;48.800;9.680;2023-03-23T13:11:18;3.20;;;2.90;;
15159;SDS011;7680;48.800;9.680;2023-03-23T13:13:59;2.30;;;2.10;;
15159;SDS011;7680;48.800;9.680;2023-03-23T13:16:45;3.42;;;2.70;;
15159;SDS011;7680;48.800;9.680;2023-03-23T13:19:25;3.10;;;2.58;;
15159;SDS011;7680;48.800;9.680;2023-03-23T13:22:05;2.55;;;2.08;;
15159;SDS011;7680;48.800;9.680;2023-03-23T13:24:43;3.08;;;2.20;;
15159;SDS011;7680;48.800;9.680;2023-03-23T13:27:22;2.50;;;2.30;;
15159;SDS011;7680;48.800;9.680;2023-03-23T13:29:55;2.80;;;2.28;;
15159;SDS011;7680;48.800;9.680;2023-03-23T13:32:32;2.45;;;2.25;;
15159;SDS011;7680;48.800;9.680;2023-03-23T13:35:11;2.97;;;2.50;;
15159;SDS011;7680;48.800;9.680;2023-03-23T13:37:46;2.22;;;2.03;;
15159;SDS011;7680;48.800;9.680;2023-03-23T13:40:24;2.60;;;2.40;;
15159;SDS011;7680;48.800;9.680;2023-03-23T13:43:00;2.53;;;2.33;;
15159;SDS011;7680;48.800;9.680;2023-03-23T13:45:42;2.95;;;2.45;;
15159;SDS011;7680;48.800;9.680;2023-03-23T13:48:19;2.50;;;2.30;;
15159;SDS011;7680;48.800;9.680;2023-03-23T13:50:54;3.00;;;2.60;;
15159;SDS011;7680;48.800;9.680;2023-03-23T13:53:30;2.42;;;2.30;;
15159;SDS011;7680;48.800;9.680;2023-03-23T13:56:16;2.38;;;2.20;;
15159;SDS011;7680;48.800;9.680;2023-03-23T13:58:51;2.90;;;2.70;;
15159;SDS011;7680;48.800;9.680;2023-03-23T14:01:37;3.17;;;2.60;;
15159;SDS011;7680;48.800;9.680;2023-03-23T14:04:14;2.67;;;2.42;;
15159;SDS011;7680;48.800;9.680;2023-03-23T14:06:49;2.45;;;2.30;;
15159;SDS011;7680;48.800;9.680;2023-03-23T14:09:23;2.67;;;2.45;;
15159;SDS011;7680;48.800;9.680;2023-03-23T14:12:01;3.08;;;2.40;;
15159;SDS011;7680;48.800;9.680;2023-03-23T14:14:39;2.40;;;2.20;;
15159;SDS011;7680;48.800;9.680;2023-03-23T14:17:15;2.88;;;2.53;;
15159;SDS011;7680;48.800;9.680;2023-03-23T14:19:52;2.55;;;2.35;;
15159;SDS011;7680;48.800;9.680;2023-03-23T14:22:26;2.78;;;2.58;;
15159;SDS011;7680;48.800;9.680;2023-03-23T14:25:00;2.58;;;2.38;;
15159;SDS011;7680;48.800;9.680;2023-03-23T14:27:39;2.72;;;2.50;;
15159;SDS011;7680;48.800;9.680;2023-03-23T14:30:13;2.75;;;2.50;;
15159;SDS011;7680;48.800;9.680;2023-03-23T14:32:47;3.15;;;2.40;;
15159;SDS011;7680;48.800;9.680;2023-03-23T14:35:23;3.65;;;3.35;;
15159;SDS011;7680;48.800;9.680;2023-03-23T14:37:58;3.65;;;3.35;;
15159;SDS011;7680;48.800;9.680;2023-03-23T14:40:32;3.08;;;2.78;;
15159;SDS011;7680;48.800;9.680;2023-03-23T14:43:05;2.70;;;2.50;;
15159;SDS011;7680;48.800;9.680;2023-03-23T14:45:39;4.28;;;2.80;;
15159;SDS011;7680;48.800;9.680;2023-03-23T14:48:12;2.67;;;2.47;;
15159;SDS011;7680;48.800;9.680;2023-03-23T14:50:50;2.60;;;2.40;;
15159;SDS011;7680;48.800;9.680;2023-03-23T14:53:24;3.00;;;2.70;;
15159;SDS011;7680;48.800;9.680;2023-03-23T14:56:03;2.78;;;2.58;;
15159;SDS011;7680;48.800;9.680;2023-03-23T14:58:43;2.90;;;2.70;;
15159;SDS011;7680;48.800;9.680;2023-03-23T15:01:17;4.20;;;2.38;;
15159;SDS011;7680;48.800;9.680;2023-03-23T15:03:52;3.65;;;2.40;;
15159;SDS011;7680;48.800;9.680;2023-03-23T15:06:30;2.90;;;2.70;;
15159;SDS011;7680;48.800;9.680;2023-03-23T15:09:11;2.72;;;2.53;;
15159;SDS011;7680;48.800;9.680;2023-03-23T15:11:53;2.85;;;2.40;;
15159;SDS011;7680;48.800;9.680;2023-03-23T15:14:29;4.18;;;3.78;;
15159;SDS011;7680;48.800;9.680;2023-03-23T15:17:03;3.20;;;3.00;;
15159;SDS011;7680;48.800;9.680;2023-03-23T15:19:37;2.90;;;2.70;;
15159;SDS011;7680;48.800;9.680;2023-03-23T15:22:19;3.05;;;2.63;;
15159;SDS011;7680;48.800;9.680;2023-03-23T15:25:01;3.00;;;2.80;;
15159;SDS011;7680;48.800;9.680;2023-03-23T15:27:42;3.05;;;2.80;;
15159;SDS011;7680;48.800;9.680;2023-03-23T15:30:28;3.58;;;3.28;;
15159;SDS011;7680;48.800;9.680;2023-03-23T15:33:04;2.83;;;2.63;;
15159;SDS011;7680;48.800;9.680;2023-03-23T15:35:45;3.55;;;3.35;;
15159;SDS011;7680;48.800;9.680;2023-03-23T15:38:21;3.20;;;2.90;;
15159;SDS011;7680;48.800;9.680;2023-03-23T15:40:57;2.72;;;2.50;;
15159;SDS011;7680;48.800;9.680;2023-03-23T15:43:32;3.25;;;3.05;;
15159;SDS011;7680;48.800;9.680;2023-03-23T15:46:19;3.08;;;2.88;;
15159;SDS011;7680;48.800;9.680;2023-03-23T15:48:54;3.13;;;2.92;;
15159;SDS011;7680;48.800;9.680;2023-03-23T15:51:40;3.30;;;3.00;;
15159;SDS011;7680;48.800;9.680;2023-03-23T15:54:14;3.78;;;3.20;;
15159;SDS011;7680;48.800;9.680;2023-03-23T15:56:47;3.10;;;2.90;;
15159;SDS011;7680;48.800;9.680;2023-03-23T15:59:19;4.10;;;3.28;;